Wiley Post Will Rogers Memorial Airport Barrow US
ICAO: PABR
IATA:
Category: Medium
Scheduled Services:

Elevation: 44 ft
TransAlt. 18000 ft.

Airport Communications:
ASOS:132.15
ANCHORAGE CNTR:135.3
CTAF:123.6
BARROW RDO:122.2

PABR Zoom In..

Runways:

(A) RW 07 length 7100 ft width 150 ft
ILS 110.50 / hdg 71

(B) RW 25 length 7100 ft width 150 ft
---- / hdg 251

Location; PABR
Day. 23 / Time. 14.53 Zulu
* Altimeter: 30.35
* Temperature: -29° c. 20.2°f.
* Wind from: 000° Speed 00 kn.
Dewpoint: -32° c.
Visibility: 10 Statute Miles.
Clouds: Clear (automated report).

PABR 231453Z AUTO 00000KT 10SM CLR M29/M32 A3035 RMK AO2 SLP280 T12941322 56003 TSNO


Wind - Calm.

YouTube Music Video
 
jpsmedia.com for Web Design  worldairports.se 2018   terms of use